Time;durP1;ratioP1;P1;durP2;ratioP2;P2;SDS_P1;SDS_P2;PMS_P1;PMS_P2;Temp;Humidity;BMP_temperature;BMP_pressure;BME280_temperature;BME280_humidity;BME280_pressure;Samples;Min_cycle;Max_cycle;Signal;HPM_P1;HPM_P2
2022/05/05 00:00:14;;;;;;;5.87;4.43;;;;;;;11.27;89.58;99518.06;5073305;28;20231;-72
2022/05/05 00:02:42;;;;;;;6.03;4.40;;;;;;;11.25;89.11;99524.19;5073477;28;20206;-72
2022/05/05 00:05:10;;;;;;;10.13;4.87;;;;;;;11.31;89.11;99528.91;5073638;28;20249;-78
2022/05/05 00:07:36;;;;;;;7.57;4.80;;;;;;;11.24;89.10;99522.56;5073619;28;20214;-72
2022/05/05 00:14:23;;;;;;;6.97;5.00;;;;;;;11.23;89.33;99528.63;5073515;28;20629;-72
2022/05/05 00:15:35;;;;;;;7.47;4.60;;;;;;;11.16;89.70;99523.09;5053465;28;20227;-72
2022/05/05 00:18:04;;;;;;;5.73;4.50;;;;;;;11.10;89.84;99521.75;5053060;28;20257;-78
2022/05/05 00:20:30;;;;;;;6.03;4.80;;;;;;;11.13;90.10;99530.16;5053336;28;20293;-72
2022/05/05 00:22:57;;;;;;;6.60;4.53;;;;;;;11.06;90.63;99525.44;5052841;28;20593;-72
2022/05/05 00:25:24;;;;;;;5.70;4.47;;;;;;;11.02;90.61;99524.00;5052899;28;20227;-72
2022/05/05 00:27:51;;;;;;;6.80;4.80;;;;;;;10.99;90.77;99518.28;5053071;28;20600;-72
2022/05/05 00:30:18;;;;;;;6.60;4.70;;;;;;;10.98;90.76;99526.88;5053026;28;20271;-72
2022/05/05 00:32:45;;;;;;;6.33;4.90;;;;;;;10.98;90.92;99519.22;5052628;28;20199;-72
2022/05/05 00:35:13;;;;;;;6.87;4.70;;;;;;;11.01;91.10;99519.81;5052887;28;20227;-72
2022/05/05 00:37:40;;;;;;;7.00;4.30;;;;;;;10.96;91.07;99518.47;5052479;28;20210;-78
2022/05/05 00:40:08;;;;;;;6.90;4.73;;;;;;;10.93;91.49;99519.50;5052814;28;20223;-78
2022/05/05 00:42:36;;;;;;;7.17;4.67;;;;;;;10.91;91.82;99521.38;5052487;28;20210;-78
2022/05/05 00:45:03;;;;;;;6.90;5.10;;;;;;;10.87;92.07;99519.91;5052595;28;20600;-78
2022/05/05 00:47:30;;;;;;;5.60;4.60;;;;;;;10.86;92.10;99513.16;5052627;28;20191;-72
2022/05/05 00:49:59;;;;;;;7.87;4.67;;;;;;;10.77;92.60;99513.78;5052667;28;20219;-72
2022/05/05 00:52:27;;;;;;;6.33;5.00;;;;;;;10.78;92.86;99520.53;5052419;28;20203;-72
2022/05/05 00:54:57;;;;;;;5.60;4.70;;;;;;;10.77;92.71;99526.56;5052555;28;20223;-72
2022/05/05 00:57:25;;;;;;;6.80;4.60;;;;;;;10.74;92.84;99521.66;5052344;28;20203;-72
2022/05/05 00:59:52;;;;;;;6.37;4.87;;;;;;;10.72;93.08;99526.06;5052322;28;20242;-72
2022/05/05 01:02:19;;;;;;;6.00;4.63;;;;;;;10.71;93.08;99535.47;5052312;28;20204;-72
2022/05/05 01:04:47;;;;;;;13.10;5.27;;;;;;;10.73;93.03;99527.69;5052350;28;20223;-78
2022/05/05 01:07:15;;;;;;;7.27;5.10;;;;;;;10.71;92.85;99532.09;5052216;28;20227;-78
2022/05/05 01:09:43;;;;;;;7.03;4.83;;;;;;;10.71;93.10;99532.09;5052212;28;20238;-78
2022/05/05 01:12:11;;;;;;;7.83;5.10;;;;;;;10.68;93.26;99527.19;5065518;28;20210;-78
2022/05/05 01:14:37;;;;;;;6.57;5.10;;;;;;;10.67;93.26;99523.78;5072075;28;20238;-72
2022/05/05 01:17:06;;;;;;;7.23;5.27;;;;;;;10.65;93.61;99528.19;5071966;28;20203;-72
2022/05/05 01:19:35;;;;;;;7.07;5.07;;;;;;;10.62;93.66;99526.66;5071647;28;20234;-72
2022/05/05 01:22:05;;;;;;;6.77;4.90;;;;;;;10.63;93.80;99523.19;5071626;28;20586;-72
2022/05/05 01:30:12;;;;;;;7.43;5.23;;;;;;;10.60;94.40;99518.25;5045383;28;20284;-72
2022/05/05 01:32:39;;;;;;;7.17;4.90;;;;;;;10.58;94.10;99509.06;5071694;28;20203;-72
2022/05/05 01:35:07;;;;;;;6.90;4.60;;;;;;;10.54;93.92;99508.44;5071837;28;20607;-72
2022/05/05 01:37:35;;;;;;;6.60;4.80;;;;;;;10.55;94.20;99510.06;5071352;28;20769;-72
2022/05/05 01:40:02;;;;;;;7.67;4.70;;;;;;;10.45;94.08;99503.94;5071561;28;20265;-72
2022/05/05 01:42:28;;;;;;;9.37;4.97;;;;;;;10.44;94.00;99509.94;5071222;28;20210;-72
2022/05/05 01:44:55;;;;;;;6.33;4.70;;;;;;;10.46;93.97;99504.75;5071570;28;20598;-72
2022/05/05 01:47:22;;;;;;;6.57;4.87;;;;;;;10.42;93.82;99509.25;5071455;28;20422;-72
2022/05/05 01:49:49;;;;;;;6.07;4.50;;;;;;;10.44;93.63;99512.50;5071410;28;20719;-72
2022/05/05 01:52:16;;;;;;;7.70;4.70;;;;;;;10.38;93.55;99512.91;5071162;28;20245;-72
2022/05/05 01:54:44;;;;;;;8.37;4.60;;;;;;;10.33;93.98;99515.78;5070767;28;20222;-72
2022/05/05 01:57:11;;;;;;;7.90;5.23;;;;;;;10.34;93.54;99507.16;5071013;28;20202;-72
2022/05/05 01:59:39;;;;;;;8.50;5.07;;;;;;;10.36;93.42;99513.00;5071295;28;20242;-72
2022/05/05 02:02:06;;;;;;;7.03;4.63;;;;;;;10.39;93.59;99517.09;5071312;28;20199;-72
2022/05/05 02:04:33;;;;;;;6.47;4.93;;;;;;;10.45;93.69;99518.44;5071262;28;20230;-72
2022/05/05 02:07:00;;;;;;;6.60;5.30;;;;;;;10.41;93.41;99515.25;5071238;28;20205;-78
2022/05/05 02:09:27;;;;;;;7.67;4.83;;;;;;;10.34;93.78;99522.50;5070984;28;20230;-78
2022/05/05 02:11:55;;;;;;;7.10;5.13;;;;;;;10.35;94.14;99523.31;5059246;28;20682;-78
2022/05/05 02:14:23;;;;;;;6.77;4.60;;;;;;;10.36;93.99;99533.47;5050943;28;20226;-78
2022/05/05 02:16:50;;;;;;;7.33;5.10;;;;;;;10.34;94.14;99531.91;5050902;28;20261;-78
2022/05/05 02:19:17;;;;;;;7.97;5.23;;;;;;;10.29;95.10;99531.38;5050874;28;20231;-78
2022/05/05 02:21:44;;;;;;;7.77;5.17;;;;;;;10.29;94.98;99533.94;5051113;28;20199;-72
2022/05/05 02:24:11;;;;;;;10.13;5.17;;;;;;;10.24;95.18;99536.78;5050866;28;20245;-72
2022/05/05 02:26:37;;;;;;;8.03;5.37;;;;;;;10.29;95.14;99531.38;5050724;28;20206;-77
2022/05/05 02:29:06;;;;;;;11.83;5.60;;;;;;;10.31;94.72;99542.34;5051012;28;20242;-78
2022/05/05 02:31:32;;;;;;;6.67;4.97;;;;;;;10.30;94.85;99543.25;5051015;28;20204;-78
2022/05/05 02:34:00;;;;;;;11.33;5.57;;;;;;;10.31;95.04;99547.44;5050656;28;20233;-73
2022/05/05 02:39:11;;;;;;;7.30;5.10;;;;;;;10.30;95.06;99550.94;5050823;28;20707;-78
2022/05/05 02:41:38;;;;;;;7.83;5.50;;;;;;;10.29;95.10;99554.38;5050811;28;20203;-72
2022/05/05 02:44:06;;;;;;;7.90;5.77;;;;;;;10.31;95.31;99553.38;5050672;28;20223;-78
2022/05/05 02:46:34;;;;;;;7.30;5.47;;;;;;;10.28;95.14;99558.69;5050619;28;20708;-72
2022/05/05 02:49:01;;;;;;;7.50;5.40;;;;;;;10.26;95.39;99555.38;5050817;28;20261;-78
2022/05/05 02:51:28;;;;;;;7.33;5.63;;;;;;;10.23;95.47;99559.84;5050426;28;20589;-78
2022/05/05 02:56:39;;;;;;;9.63;5.77;;;;;;;10.24;95.79;99572.56;5050671;28;20313;-72
2022/05/05 02:59:07;;;;;;;6.77;5.40;;;;;;;10.26;95.92;99567.31;5050677;28;20261;-78
2022/05/05 03:01:34;;;;;;;7.50;5.50;;;;;;;10.27;95.82;99562.16;5050454;28;20203;-72
2022/05/05 03:04:01;;;;;;;8.70;5.80;;;;;;;10.22;95.73;99568.44;5050530;28;20634;-72
2022/05/05 03:06:28;;;;;;;8.63;6.03;;;;;;;10.19;96.19;99572.81;5050810;28;20663;-72
2022/05/05 03:08:55;;;;;;;8.93;5.63;;;;;;;10.17;96.35;99577.22;5054314;28;20223;-78
2022/05/05 03:11:22;;;;;;;13.83;6.20;;;;;;;10.17;96.34;99582.31;5061612;28;20203;-72
2022/05/05 03:13:48;;;;;;;7.33;5.37;;;;;;;10.17;96.61;99586.63;5074214;28;20616;-72
2022/05/05 03:16:17;;;;;;;9.83;5.77;;;;;;;10.17;96.32;99592.53;5074158;28;20198;-72
2022/05/05 03:18:44;;;;;;;8.93;5.60;;;;;;;10.15;96.61;99599.50;5074028;28;20226;-78
2022/05/05 03:21:10;;;;;;;7.67;5.77;;;;;;;10.15;96.59;99603.75;5074207;28;20209;-78
2022/05/05 03:23:37;;;;;;;8.60;5.40;;;;;;;10.19;96.50;99610.34;5073714;28;20676;-72
2022/05/05 03:26:04;;;;;;;8.77;5.67;;;;;;;10.10;97.08;99614.28;5074026;28;20195;-72
2022/05/05 03:28:31;;;;;;;6.80;5.00;;;;;;;10.03;97.15;99604.53;5074132;28;20215;-72
2022/05/05 03:30:58;;;;;;;8.30;5.47;;;;;;;10.03;97.42;99615.56;5073731;28;20213;-72
2022/05/05 03:33:26;;;;;;;8.37;5.37;;;;;;;10.10;97.38;99611.72;5073788;28;20225;-72
2022/05/05 03:35:53;;;;;;;10.67;5.70;;;;;;;10.15;96.95;99614.84;5073986;28;20198;-72
2022/05/05 03:38:20;;;;;;;7.50;5.57;;;;;;;10.17;97.32;99612.16;5073864;28;20202;-72
2022/05/05 03:40:47;;;;;;;8.47;5.77;;;;;;;10.16;97.38;99613.09;5073782;28;20237;-72
2022/05/05 03:43:14;;;;;;;7.63;5.33;;;;;;;10.17;97.54;99617.28;5073730;28;20639;-72
2022/05/05 03:45:41;;;;;;;8.37;5.50;;;;;;;10.22;97.54;99620.38;5073927;28;20230;-72
2022/05/05 03:48:09;;;;;;;7.13;5.53;;;;;;;10.29;97.52;99621.66;5073441;28;20199;-72
2022/05/05 03:50:37;;;;;;;7.47;5.63;;;;;;;10.35;97.51;99617.88;5073288;28;20588;-72
2022/05/05 03:53:04;;;;;;;9.37;5.90;;;;;;;10.34;97.57;99624.75;5073328;28;20198;-72
2022/05/05 03:55:31;;;;;;;7.20;5.73;;;;;;;10.34;98.01;99622.19;5073859;28;20234;-72
2022/05/05 03:57:58;;;;;;;11.47;5.97;;;;;;;10.37;98.45;99623.72;5073603;28;20203;-72
2022/05/05 04:00:25;;;;;;;6.33;5.40;;;;;;;10.46;98.71;99625.72;5073578;28;20245;-72
2022/05/05 04:05:33;;;;;;;7.90;5.67;;;;;;;10.64;99.03;99626.28;5073419;28;20670;-78
2022/05/05 04:08:01;;;;;;;8.07;5.80;;;;;;;10.77;97.89;99634.00;5073121;28;20238;-78
2022/05/05 04:10:28;;;;;;;8.43;5.77;;;;;;;10.87;97.26;99637.59;5073435;28;20215;-72
2022/05/05 04:12:55;;;;;;;8.40;5.53;;;;;;;11.01;96.53;99629.03;5053191;28;20207;-72
2022/05/05 04:15:22;;;;;;;8.33;5.60;;;;;;;11.24;96.30;99632.63;5053241;28;20223;-72
2022/05/05 04:17:49;;;;;;;7.20;5.47;;;;;;;11.42;95.91;99633.97;5052850;28;20204;-72
2022/05/05 04:20:16;;;;;;;8.37;5.47;;;;;;;11.67;95.09;99635.69;5052910;28;20242;-72
2022/05/05 04:22:43;;;;;;;9.50;5.50;;;;;;;11.77;94.12;99634.13;5052789;28;20199;-72
2022/05/05 04:25:13;;;;;;;6.57;5.27;;;;;;;11.94;93.30;99645.81;5052825;28;20749;-72
2022/05/05 04:27:42;;;;;;;7.10;5.30;;;;;;;12.12;92.37;99648.84;5052918;28;20199;-72
2022/05/05 04:30:10;;;;;;;8.30;5.07;;;;;;;12.34;91.44;99653.31;5053095;28;20223;-78
2022/05/05 04:32:37;;;;;;;7.37;5.27;;;;;;;12.48;91.48;99654.06;5052878;28;20207;-72
2022/05/05 04:35:05;;;;;;;6.17;4.87;;;;;;;12.71;92.07;99655.78;5052828;28;20216;-79
2022/05/05 04:37:32;;;;;;;7.97;5.20;;;;;;;12.89;91.38;99659.63;5052743;28;20207;-78
2022/05/05 04:39:58;;;;;;;7.23;5.43;;;;;;;12.98;90.75;99657.31;5052739;28;20235;-78
2022/05/05 04:42:27;;;;;;;6.97;5.20;;;;;;;13.21;90.31;99656.44;5052758;28;20206;-78
2022/05/05 04:44:53;;;;;;;7.57;5.57;;;;;;;13.36;88.42;99657.09;5052700;28;20226;-79
2022/05/05 04:47:21;;;;;;;6.53;5.13;;;;;;;13.50;88.17;99663.75;5052386;28;20207;-79
2022/05/05 04:49:47;;;;;;;7.50;5.00;;;;;;;13.69;87.18;99664.00;5052521;28;20234;-79
2022/05/05 04:52:14;;;;;;;6.07;4.80;;;;;;;13.89;85.90;99664.22;5052315;28;20207;-78
2022/05/05 04:54:42;;;;;;;6.70;5.13;;;;;;;14.07;86.17;99665.38;5052058;28;20639;-79
2022/05/05 04:57:09;;;;;;;6.67;5.30;;;;;;;14.36;84.96;99655.38;5052454;28;20200;-74
2022/05/05 04:59:37;;;;;;;7.10;5.33;;;;;;;14.55;83.39;99661.69;5052144;28;20237;-79
2022/05/05 05:02:05;;;;;;;7.57;5.30;;;;;;;14.80;82.45;99670.81;5052093;28;20195;-79
2022/05/05 05:04:32;;;;;;;10.47;5.60;;;;;;;14.91;81.75;99658.72;5052296;28;20228;-79
2022/05/05 05:06:58;;;;;;;8.07;5.47;;;;;;;15.12;81.99;99666.44;5052250;28;20231;-78
2022/05/05 05:09:25;;;;;;;7.63;5.10;;;;;;;15.40;81.43;99664.19;5052009;28;20229;-73
2022/05/05 05:11:52;;;;;;;6.90;5.20;;;;;;;15.54;79.08;99673.34;5063371;28;20203;-73
2022/05/05 05:14:19;;;;;;;7.83;5.43;;;;;;;15.65;79.30;99672.44;5072018;28;20232;-73
2022/05/05 05:16:47;;;;;;;8.10;5.57;;;;;;;15.51;78.96;99682.16;5071893;28;20207;-73
2022/05/05 05:19:14;;;;;;;7.90;5.40;;;;;;;15.74;79.32;99687.19;5071690;28;20690;-79
2022/05/05 05:21:41;;;;;;;8.20;5.50;;;;;;;16.05;79.07;99685.38;5071648;28;20631;-79
2022/05/05 05:24:08;;;;;;;8.93;5.30;;;;;;;16.39;79.17;99693.63;5071539;28;20233;-79
2022/05/05 05:26:35;;;;;;;6.60;5.07;;;;;;;16.64;77.51;99699.19;5071566;28;20711;-80
2022/05/05 05:29:02;;;;;;;8.30;5.23;;;;;;;16.81;78.05;99701.16;5071370;28;20226;-79
2022/05/05 05:31:29;;;;;;;5.47;4.87;;;;;;;16.82;75.14;99712.31;5071163;28;20198;-79
2022/05/05 05:33:57;;;;;;;6.43;4.80;;;;;;;16.63;74.31;99705.34;5071690;28;20225;-79
2022/05/05 05:36:24;;;;;;;7.93;4.90;;;;;;;16.75;75.20;99704.25;5071672;28;20198;-79
2022/05/05 05:38:51;;;;;;;8.93;4.50;;;;;;;16.94;74.28;99709.47;5071304;28;20219;-79
2022/05/05 05:41:18;;;;;;;236.10;94.13;;;;;;;17.23;73.22;99705.22;5071088;28;20623;-78
2022/05/05 05:43:45;;;;;;;25.63;13.33;;;;;;;17.46;71.58;99718.66;5071154;28;20711;-79
2022/05/05 05:46:13;;;;;;;10.57;6.30;;;;;;;17.72;70.98;99693.81;5071512;28;20664;-79
2022/05/05 05:48:39;;;;;;;6.23;5.07;;;;;;;17.99;70.53;99705.16;5071108;28;20200;-79
2022/05/05 05:51:08;;;;;;;7.00;5.03;;;;;;;18.02;67.29;99707.47;5071131;28;20199;-79
2022/05/05 05:53:35;;;;;;;110.90;38.40;;;;;;;18.18;69.17;99719.78;5070956;28;20198;-79
2022/05/05 05:56:02;;;;;;;14.10;7.23;;;;;;;18.38;67.31;99720.47;5070999;28;20207;-80
2022/05/05 05:58:29;;;;;;;7.23;4.77;;;;;;;18.55;66.48;99724.88;5071155;28;20199;-80
2022/05/05 06:00:55;;;;;;;13.20;5.90;;;;;;;18.61;64.43;99721.69;5071042;28;20229;-79
2022/05/05 06:06:08;;;;;;;5.10;4.27;;;;;;;18.80;62.60;99725.16;5071079;28;20194;-80
2022/05/05 06:08:35;;;;;;;5.47;4.10;;;;;;;19.09;61.81;99730.91;5071236;28;20195;-80
2022/05/05 06:11:01;;;;;;;15.93;7.37;;;;;;;19.34;63.32;99723.31;5066799;28;20198;-79
2022/05/05 06:13:29;;;;;;;13.37;6.03;;;;;;;19.84;61.83;99726.09;5050661;28;20213;-80
2022/05/05 06:15:56;;;;;;;92.90;34.90;;;;;;;20.27;59.45;99726.06;5050833;28;20294;-79
2022/05/05 06:18:23;;;;;;;6.53;4.77;;;;;;;20.40;58.14;99729.06;5049678;28;20197;-80
2022/05/05 06:20:50;;;;;;;5.90;3.90;;;;;;;20.66;57.44;99730.78;5050770;28;20705;-79
2022/05/05 06:23:18;;;;;;;4.70;3.90;;;;;;;20.55;55.11;99732.69;5050707;28;20211;-79
2022/05/05 06:25:45;;;;;;;4.10;3.23;;;;;;;20.88;52.23;99729.31;5051061;28;20282;-80
2022/05/05 06:28:12;;;;;;;4.67;3.40;;;;;;;21.17;53.46;99726.22;5050799;28;20231;-80
2022/05/05 06:30:39;;;;;;;6.00;3.70;;;;;;;20.89;51.27;99731.75;5049973;28;20695;-80
2022/05/05 06:33:06;;;;;;;5.47;3.73;;;;;;;20.91;53.59;99731.59;5050653;28;20205;-73
2022/05/05 06:35:33;;;;;;;4.33;3.33;;;;;;;21.16;52.08;99742.81;5050913;28;20220;-73
2022/05/05 06:38:00;;;;;;;4.93;3.30;;;;;;;21.00;52.24;99739.25;5050586;28;20203;-73
2022/05/05 06:40:28;;;;;;;4.33;3.20;;;;;;;20.95;53.43;99733.72;5051134;28;20239;-73
2022/05/05 06:42:56;;;;;;;4.47;3.10;;;;;;;21.28;54.13;99740.69;5054700;28;20196;-73
2022/05/05 06:45:23;;;;;;;5.77;4.00;;;;;;;21.82;52.55;99739.16;5054764;28;20311;-73
2022/05/05 06:47:50;;;;;;;12.80;6.80;;;;;;;22.06;52.36;99733.06;5054866;28;20257;-73
2022/05/05 06:50:21;;;;;;;5.37;3.60;;;;;;;22.27;48.91;99736.91;5054885;28;20224;-74
2022/05/05 06:52:48;;;;;;;11.80;3.70;;;;;;;22.25;51.10;99739.69;5054500;28;20194;-74
2022/05/05 06:55:15;;;;;;;4.10;3.50;;;;;;;22.35;52.00;99745.47;5054505;28;20224;-73
2022/05/05 06:57:44;;;;;;;6.03;3.83;;;;;;;22.28;49.09;99754.97;5061149;28;20211;-73
2022/05/05 07:00:13;;;;;;;9.60;3.97;;;;;;;22.31;49.88;99745.97;5070019;28;20285;-73
2022/05/05 07:02:40;;;;;;;5.43;4.37;;;;;;;22.35;50.48;99750.69;5054155;28;20594;-74
2022/05/05 07:05:26;;;;;;;8.50;4.80;;;;;;;22.65;54.74;99748.25;5064594;28;20234;-73
2022/05/05 07:07:54;;;;;;;9.53;6.43;;;;;;;22.77;54.00;99759.88;5074345;28;20668;-73
2022/05/05 07:13:06;;;;;;;11.20;6.73;;;;;;;22.43;55.75;99767.25;5068796;28;20270;-73
2022/05/05 07:15:34;;;;;;;9.27;6.67;;;;;;;22.09;55.88;99758.75;5054450;28;20625;-73
2022/05/05 07:18:01;;;;;;;8.90;6.87;;;;;;;22.20;56.23;99768.03;5054368;28;20203;-72
2022/05/05 07:20:28;;;;;;;9.83;7.37;;;;;;;21.60;57.47;99773.69;5054258;28;20627;-73
2022/05/05 07:22:56;;;;;;;10.90;7.20;;;;;;;21.69;59.11;99770.91;5054268;28;20205;-73
2022/05/05 07:25:23;;;;;;;10.30;7.40;;;;;;;22.04;59.15;99778.47;5069570;28;20242;-73
2022/05/05 07:27:51;;;;;;;9.10;7.63;;;;;;;21.90;57.26;99783.41;5073703;28;20206;-73
2022/05/05 07:30:19;;;;;;;10.80;6.97;;;;;;;21.90;57.52;99783.41;5073927;28;20434;-73
2022/05/05 07:32:46;;;;;;;11.00;8.13;;;;;;;22.51;54.65;99786.25;5073698;28;20201;-73
2022/05/05 07:35:13;;;;;;;8.60;6.93;;;;;;;23.05;50.95;99788.91;5073842;28;20227;-73
2022/05/05 07:37:40;;;;;;;13.77;7.20;;;;;;;23.23;50.08;99779.97;5073629;28;20201;-74
2022/05/05 07:40:08;;;;;;;9.63;6.93;;;;;;;23.03;50.50;99790.88;5073657;28;20703;-73
2022/05/05 07:42:37;;;;;;;8.50;6.80;;;;;;;22.47;51.17;99784.19;5074020;28;20201;-73
2022/05/05 07:45:04;;;;;;;8.73;6.13;;;;;;;23.03;50.69;99790.06;5073672;28;20273;-73
2022/05/05 07:47:33;;;;;;;8.07;6.83;;;;;;;23.28;49.87;99804.53;5073623;28;20204;-73
2022/05/05 07:50:01;;;;;;;13.13;6.17;;;;;;;23.24;49.04;99800.69;5073596;28;20681;-73
2022/05/05 12:26:11;;;;;;;3.88;3.47;;;;;;;26.75;32.89;99762.34;5064524;28;20563;-74
2022/05/05 12:28:50;;;;;;;6.22;3.50;;;;;;;27.21;35.26;99761.59;5064491;28;20194;-74
2022/05/05 12:31:22;;;;;;;4.95;4.05;;;;;;;26.90;33.84;99758.72;5064791;28;20226;-74
2022/05/05 12:33:49;;;;;;;3.75;3.35;;;;;;;25.81;36.19;99765.59;5064673;28;20231;-73
2022/05/05 12:36:17;;;;;;;7.40;4.03;;;;;;;25.44;37.49;99764.13;5064502;28;20217;-74
2022/05/05 12:38:44;;;;;;;5.18;3.70;;;;;;;25.26;37.45;99759.38;5064525;28;20212;-74
2022/05/05 12:41:12;;;;;;;7.93;3.85;;;;;;;24.86;36.49;99756.38;5064516;27;20611;-75
2022/05/05 12:43:41;;;;;;;4.38;3.80;;;;;;;24.98;36.43;99749.66;5063870;27;20643;-75
2022/05/05 12:46:08;;;;;;;6.40;3.60;;;;;;;25.40;38.70;99752.44;5064197;28;20646;-75
2022/05/05 12:48:39;;;;;;;4.68;3.95;;;;;;;25.67;37.28;99748.19;5097178;27;20214;-75
2022/05/05 12:51:15;;;;;;;5.95;4.05;;;;;;;25.94;37.79;99746.53;5169343;27;20810;-75
2022/05/05 13:01:57;;;;;;;5.53;4.18;;;;;;;25.47;37.45;99754.09;5170389;27;20276;-74
2022/05/05 13:04:24;;;;;;;6.53;4.15;;;;;;;25.51;37.72;99760.56;5095353;27;20592;-75
2022/05/05 13:06:52;;;;;;;7.90;4.18;;;;;;;25.75;36.09;99745.41;5063809;28;20223;-75
2022/05/05 13:09:20;;;;;;;9.48;4.15;;;;;;;25.83;35.69;99757.56;5063648;28;20214;-82
2022/05/05 13:11:51;;;;;;;5.85;3.60;;;;;;;26.09;35.90;99756.88;5063719;27;20295;-82
2022/05/05 13:14:20;;;;;;;6.13;4.10;;;;;;;26.11;34.11;99749.63;5063827;28;20321;-83
2022/05/05 13:16:48;;;;;;;4.82;4.28;;;;;;;25.44;35.66;99751.06;5063989;27;20229;-82
2022/05/05 13:19:15;;;;;;;5.90;4.07;;;;;;;25.23;37.85;99752.72;5063890;27;20242;-81
2022/05/05 13:21:42;;;;;;;6.70;4.05;;;;;;;25.29;38.45;99745.91;5117276;27;20705;-82
2022/05/05 13:24:12;;;;;;;4.35;3.95;;;;;;;25.34;37.85;99742.72;5113342;27;20219;-83
2022/05/05 13:26:40;;;;;;;6.13;3.53;;;;;;;25.40;39.70;99742.78;5053028;27;20268;-83
2022/05/05 13:29:08;;;;;;;5.15;4.00;;;;;;;25.10;37.96;99741.28;5050253;28;20219;-83
2022/05/05 13:31:35;;;;;;;5.15;3.90;;;;;;;25.04;38.76;99746.28;5050716;27;20231;-82
2022/05/05 13:34:02;;;;;;;4.78;3.88;;;;;;;25.02;39.44;99737.84;5050173;28;20246;-82
2022/05/05 13:36:29;;;;;;;6.72;3.72;;;;;;;25.00;38.62;99745.03;5120425;27;20216;-83
2022/05/05 13:38:56;;;;;;;3.95;3.65;;;;;;;24.94;36.70;99745.81;5108847;27;20684;-82
2022/05/05 13:41:23;;;;;;;5.05;3.80;;;;;;;24.78;37.99;99743.44;5049974;28;20222;-82
2022/05/05 13:43:50;;;;;;;6.63;4.20;;;;;;;24.65;38.62;99751.16;5049772;28;20649;-83
2022/05/05 13:46:19;;;;;;;6.85;3.78;;;;;;;24.76;37.16;99745.44;5049836;28;20222;-81
2022/05/05 13:48:46;;;;;;;5.10;3.95;;;;;;;24.60;38.23;99752.50;5049518;28;20217;-83
2022/05/05 13:51:13;;;;;;;10.20;4.32;;;;;;;24.55;38.19;99749.66;5049609;28;20215;-84
2022/05/05 13:53:40;;;;;;;7.10;3.90;;;;;;;24.45;39.84;99743.09;5083841;27;20677;-82
2022/05/05 13:56:09;;;;;;;5.63;4.43;;;;;;;24.32;39.89;99738.53;5154034;27;20228;-81
2022/05/05 13:58:36;;;;;;;8.05;3.97;;;;;;;24.16;37.82;99740.34;5154855;27;20253;-81
2022/05/05 14:01:02;;;;;;;4.30;3.55;;;;;;;24.24;38.39;99741.25;5154779;27;20235;-82
2022/05/05 14:03:31;;;;;;;4.65;3.60;;;;;;;24.15;39.30;99741.34;5154350;27;20602;-82
2022/05/05 14:05:58;;;;;;;7.28;3.47;;;;;;;23.92;38.89;99748.50;5154053;27;20684;-82
2022/05/05 14:13:54;;;;;;;4.22;3.70;;;;;;;23.51;39.56;99743.66;5067270;27;20586;-83
2022/05/05 14:16:21;;;;;;;6.10;3.55;;;;;;;23.40;39.87;99741.50;5049091;28;20211;-75
2022/05/05 14:18:49;;;;;;;3.53;3.20;;;;;;;23.40;40.34;99744.09;5048036;27;20206;-83
2022/05/05 14:21:16;;;;;;;3.97;3.25;;;;;;;23.04;40.58;99736.94;5047932;28;20227;-82
2022/05/05 14:23:43;;;;;;;3.72;3.20;;;;;;;23.03;42.24;99738.69;5047009;28;20225;-82
2022/05/05 14:26:10;;;;;;;5.28;3.58;;;;;;;23.09;41.73;99741.59;5046834;28;20636;-83
2022/05/05 14:28:37;;;;;;;4.45;3.45;;;;;;;23.02;40.84;99746.72;5049571;28;20210;-83
2022/05/05 14:31:04;;;;;;;10.95;3.60;;;;;;;22.92;41.20;99739.09;5049404;28;20219;-75
2022/05/05 14:33:31;;;;;;;3.97;3.10;;;;;;;22.93;41.32;99743.31;5049428;28;20582;-83
2022/05/05 14:35:59;;;;;;;6.33;4.40;;;;;;;22.88;40.22;99744.84;5048866;28;20775;-82
2022/05/05 14:38:26;;;;;;;4.73;3.20;;;;;;;22.80;39.67;99733.47;5047982;28;20201;-84
2022/05/05 14:40:53;;;;;;;4.73;3.03;;;;;;;22.60;41.14;99733.13;5049272;28;20606;-83
2022/05/05 14:43:20;;;;;;;4.90;3.10;;;;;;;22.72;40.12;99735.31;5049147;28;20233;-82
2022/05/05 14:45:47;;;;;;;4.87;3.20;;;;;;;22.66;41.58;99736.00;5049256;28;20224;-84
2022/05/05 14:48:15;;;;;;;6.33;3.20;;;;;;;22.48;40.79;99729.28;5049086;28;20197;-83
2022/05/05 14:50:42;;;;;;;5.43;3.03;;;;;;;22.58;42.46;99740.31;5049124;28;20233;-83
2022/05/05 14:53:10;;;;;;;4.73;3.30;;;;;;;22.56;39.30;99739.66;5048873;28;20581;-80
2022/05/05 14:55:37;;;;;;;3.73;3.23;;;;;;;22.42;42.05;99748.22;5049337;28;20237;-81
2022/05/05 14:58:04;;;;;;;3.97;3.20;;;;;;;22.38;41.88;99742.53;5049058;28;20211;-82
2022/05/05 15:00:31;;;;;;;6.60;3.20;;;;;;;22.29;40.46;99735.75;5049463;28;20218;-81
2022/05/05 15:02:57;;;;;;;4.07;2.93;;;;;;;22.20;41.72;99739.38;5048745;28;20606;-81
2022/05/05 15:05:24;;;;;;;4.03;2.90;;;;;;;22.10;42.58;99741.34;5049433;28;20233;-81
2022/05/05 15:07:51;;;;;;;3.53;3.07;;;;;;;22.08;42.13;99733.69;5048799;28;20254;-81
2022/05/05 15:10:19;;;;;;;4.73;3.03;;;;;;;22.00;41.65;99730.31;5049018;28;20640;-81
2022/05/05 15:12:46;;;;;;;8.10;3.00;;;;;;;22.09;42.66;99732.72;5048458;28;20208;-81
2022/05/05 15:15:13;;;;;;;4.00;3.03;;;;;;;22.07;43.23;99731.25;5049090;28;20242;-79
2022/05/05 15:17:39;;;;;;;5.90;3.27;;;;;;;21.90;42.37;99726.13;5048436;28;20699;-80
2022/05/05 15:20:08;;;;;;;5.37;2.80;;;;;;;21.88;42.01;99732.47;5049242;28;20228;-81
2022/05/05 15:22:36;;;;;;;5.67;3.00;;;;;;;21.64;42.96;99730.72;5048361;28;20197;-81
2022/05/05 15:25:06;;;;;;;6.47;3.13;;;;;;;21.52;43.13;99726.88;5147412;27;20634;-81
2022/05/05 15:27:34;;;;;;;4.43;2.77;;;;;;;21.48;41.72;99732.41;5146664;27;20199;-81
2022/05/05 15:30:02;;;;;;;4.80;3.00;;;;;;;21.54;42.05;99736.13;5153412;27;20223;-80
2022/05/05 15:32:30;;;;;;;4.40;2.83;;;;;;;21.40;42.23;99735.00;5151631;27;20202;-83
2022/05/05 15:34:57;;;;;;;7.00;3.17;;;;;;;21.35;43.05;99731.25;5153016;27;20626;-79
2022/05/05 15:37:24;;;;;;;9.60;3.40;;;;;;;21.36;43.62;99738.94;5151817;27;20243;-80
2022/05/05 15:39:51;;;;;;;3.93;3.00;;;;;;;21.36;42.33;99732.91;5153056;27;20240;-80
2022/05/05 15:42:18;;;;;;;3.53;2.87;;;;;;;21.29;43.75;99737.09;5153219;27;20210;-80
2022/05/05 15:44:46;;;;;;;5.10;3.20;;;;;;;21.15;44.28;99730.81;5153249;27;20223;-73
2022/05/05 15:47:13;;;;;;;4.47;2.80;;;;;;;21.08;44.68;99737.59;5152903;27;20205;-73
2022/05/05 15:49:41;;;;;;;3.40;2.80;;;;;;;21.15;45.02;99736.00;5098652;27;20679;-73
2022/05/05 15:52:09;;;;;;;3.37;2.60;;;;;;;21.10;44.51;99733.06;5151311;27;20209;-72
2022/05/05 15:54:36;;;;;;;3.67;2.63;;;;;;;21.01;43.56;99735.66;5152213;27;20203;-74
2022/05/05 15:57:05;;;;;;;3.20;2.63;;;;;;;20.83;43.96;99734.19;5118083;27;20468;-72
2022/05/05 15:59:38;;;;;;;4.60;2.90;;;;;;;20.65;44.22;99736.91;5047843;28;20282;-72
2022/05/05 16:02:08;;;;;;;3.47;2.70;;;;;;;20.50;44.99;99732.31;5083672;27;20195;-73
2022/05/05 16:04:34;;;;;;;5.50;2.80;;;;;;;20.44;43.37;99737.34;5152931;27;20197;-73
2022/05/05 16:07:02;;;;;;;6.33;3.30;;;;;;;20.28;44.02;99740.72;5152308;27;20214;-73
2022/05/05 16:09:29;;;;;;;3.67;3.20;;;;;;;20.21;44.56;99742.28;5152572;27;20199;-72
2022/05/05 16:11:56;;;;;;;4.37;2.57;;;;;;;20.10;44.16;99735.59;5152120;27;20227;-72
2022/05/05 16:14:23;;;;;;;6.60;2.80;;;;;;;20.00;45.45;99733.13;5152888;27;20296;-72
2022/05/05 16:16:50;;;;;;;5.27;2.80;;;;;;;19.95;44.89;99732.78;5152154;27;20232;-80
2022/05/05 16:19:19;;;;;;;4.90;2.77;;;;;;;19.87;44.65;99736.16;5152097;27;20203;-80
2022/05/05 16:21:46;;;;;;;4.17;2.60;;;;;;;19.74;45.74;99740.13;5151955;27;20227;-80
2022/05/05 16:24:13;;;;;;;10.60;2.80;;;;;;;19.61;45.68;99741.34;5136404;27;20224;-80
2022/05/05 16:32:08;;;;;;;5.47;3.07;;;;;;;19.34;46.24;99744.06;5054625;27;20199;-80
2022/05/05 16:34:36;;;;;;;8.03;3.40;;;;;;;19.27;46.74;99754.22;5047635;28;20203;-80
2022/05/05 16:37:04;;;;;;;4.90;3.60;;;;;;;19.28;47.69;99752.44;5047060;28;20210;-80
2022/05/05 16:39:31;;;;;;;9.33;3.40;;;;;;;19.18;47.79;99753.34;5047811;28;20205;-80
2022/05/05 16:42:01;;;;;;;4.50;3.00;;;;;;;19.08;47.15;99751.78;5048701;27;20225;-79
2022/05/05 16:44:28;;;;;;;5.93;3.20;;;;;;;19.08;47.09;99752.63;5101230;27;20660;-80
2022/05/05 16:46:54;;;;;;;6.10;3.87;;;;;;;18.92;47.87;99755.88;5101663;27;20221;-80